createdAt,value
2019-03-21T00:00:26.905Z,10.28
2019-03-21T00:02:55.589Z,10.32
2019-03-21T00:05:26.529Z,10.29
2019-03-21T00:07:55.316Z,10.24
2019-03-21T00:10:33.219Z,10.16
2019-03-21T00:13:02.007Z,10.30
2019-03-21T00:15:48.613Z,10.20
2019-03-21T00:18:17.506Z,10.16
2019-03-21T00:20:46.188Z,10.26
2019-03-21T00:23:14.842Z,10.24
2019-03-21T00:25:43.566Z,10.33
2019-03-21T00:28:12.352Z,10.07
2019-03-21T00:30:40.932Z,10.05
2019-03-21T00:33:09.824Z,10.14
2019-03-21T00:35:38.792Z,10.05
2019-03-21T00:38:07.706Z,10.14
2019-03-21T00:40:39.565Z,10.15
2019-03-21T00:43:10.789Z,10.19
2019-03-21T00:45:39.375Z,10.01
2019-03-21T00:48:10.614Z,10.10
2019-03-21T00:50:39.472Z,10.01
2019-03-21T00:53:08.421Z,10.12
2019-03-21T00:55:40.388Z,10.00
2019-03-21T00:58:09.839Z,10.11
2019-03-21T01:00:53.433Z,10.08
2019-03-21T01:03:22.212Z,10.09
2019-03-21T01:05:50.999Z,10.02
2019-03-21T01:08:19.788Z,10.09
2019-03-21T01:10:49.490Z,10.11
2019-03-21T01:13:18.188Z,10.10
2019-03-21T01:15:46.770Z,10.14
2019-03-21T01:18:15.454Z,10.08
2019-03-21T01:20:44.120Z,10.06
2019-03-21T01:23:12.825Z,10.08
2019-03-21T01:25:47.448Z,10.08
2019-03-21T01:28:16.137Z,10.02
2019-03-21T01:30:44.691Z,10.08
2019-03-21T01:33:13.405Z,9.93
2019-03-21T01:35:42.586Z,9.94
2019-03-21T01:38:11.300Z,10.12
2019-03-21T01:40:55.027Z,10.15
2019-03-21T01:43:23.813Z,10.03
2019-03-21T01:45:52.478Z,10.03
2019-03-21T01:48:21.287Z,10.01
2019-03-21T01:50:49.972Z,9.99
2019-03-21T01:53:18.650Z,9.87
2019-03-21T01:55:47.219Z,9.93
2019-03-21T01:58:15.916Z,9.89
2019-03-21T02:00:47.176Z,9.91
2019-03-21T02:03:15.961Z,9.88
2019-03-21T02:05:44.509Z,10.01
2019-03-21T02:08:13.331Z,9.98
2019-03-21T02:10:41.882Z,9.83
2019-03-21T02:13:10.605Z,9.91
2019-03-21T02:15:40.803Z,9.79
2019-03-21T02:18:09.814Z,9.96
2019-03-21T02:20:38.398Z,9.84
2019-03-21T02:23:07.189Z,9.93
2019-03-21T02:25:44.476Z,10.03
2019-03-21T02:28:13.262Z,10.01
2019-03-21T02:30:50.243Z,9.91
2019-03-21T02:33:22.122Z,9.89
2019-03-21T02:35:50.795Z,9.85
2019-03-21T02:38:19.582Z,9.81
2019-03-21T02:40:49.906Z,9.73
2019-03-21T02:43:18.691Z,9.85
2019-03-21T02:45:47.273Z,9.79
2019-03-21T02:48:16.073Z,9.92
2019-03-21T02:50:45.455Z,9.88
2019-03-21T02:53:14.151Z,9.92
2019-03-21T02:55:42.736Z,9.89
2019-03-21T02:58:11.427Z,9.99
2019-03-21T03:00:44.898Z,9.88
2019-03-21T03:03:13.704Z,9.78
2019-03-21T03:05:42.296Z,9.81
2019-03-21T03:08:11.078Z,9.90
2019-03-21T03:10:48.307Z,9.94
2019-03-21T03:13:16.945Z,9.89
2019-03-21T03:15:45.846Z,9.75
2019-03-21T03:18:22.086Z,9.71
2019-03-21T03:20:50.890Z,9.85
2019-03-21T03:23:19.678Z,9.84
2019-03-21T03:25:50.995Z,9.88
2019-03-21T03:28:27.804Z,9.79
2019-03-21T03:30:59.682Z,9.76
2019-03-21T03:33:28.882Z,9.78
2019-03-21T03:35:57.882Z,9.78
2019-03-21T03:38:26.425Z,9.89
2019-03-21T03:41:00.547Z,9.74
2019-03-21T03:43:29.225Z,9.61
2019-03-21T03:45:57.859Z,9.69
2019-03-21T03:48:28.070Z,9.83
2019-03-21T03:50:56.728Z,9.79
2019-03-21T03:53:25.510Z,9.74
2019-03-21T03:55:54.303Z,9.84
2019-03-21T03:58:28.379Z,9.71
2019-03-21T04:00:57.404Z,9.77
2019-03-21T04:03:27.969Z,9.84
2019-03-21T04:05:57.062Z,9.84
2019-03-21T04:08:25.609Z,9.81
2019-03-21T04:10:56.145Z,9.77
2019-03-21T04:13:24.724Z,9.81
2019-03-21T04:15:54.235Z,9.87
2019-03-21T04:18:24.787Z,9.75
2019-03-21T04:21:08.165Z,9.65
2019-03-21T04:23:36.881Z,9.78
2019-03-21T04:26:26.808Z,9.93
2019-03-21T04:28:55.421Z,9.92
2019-03-21T04:31:24.132Z,9.90
2019-03-21T04:33:56.101Z,9.78
2019-03-21T04:36:24.780Z,9.71
2019-03-21T04:38:53.466Z,9.83
2019-03-21T04:41:22.255Z,9.88
2019-03-21T04:43:50.915Z,9.97
2019-03-21T04:46:19.624Z,9.92
2019-03-21T04:48:48.410Z,9.95
2019-03-21T04:51:16.993Z,9.90
2019-03-21T04:53:45.662Z,9.93
2019-03-21T04:56:14.262Z,9.83
2019-03-21T04:58:42.921Z,9.74
2019-03-21T05:01:11.641Z,9.90
2019-03-21T05:03:40.320Z,9.93
2019-03-21T05:06:09.005Z,9.62
2019-03-21T05:08:37.691Z,9.88
2019-03-21T05:11:06.274Z,9.92
2019-03-21T05:13:34.961Z,9.86
2019-03-21T05:16:14.034Z,9.88
2019-03-21T05:18:46.360Z,9.90
2019-03-21T05:21:20.790Z,9.84
2019-03-21T05:23:49.469Z,9.98
2019-03-21T05:26:18.255Z,9.96
2019-03-21T05:28:46.863Z,9.93
2019-03-21T05:31:31.070Z,9.93
2019-03-21T05:33:59.745Z,9.89
2019-03-21T05:36:28.359Z,9.92
2019-03-21T05:38:57.148Z,9.89
2019-03-21T05:41:25.945Z,10.02
2019-03-21T05:44:03.840Z,9.96
2019-03-21T05:46:33.253Z,9.96
2019-03-21T05:49:01.925Z,9.97
2019-03-21T05:51:30.533Z,9.97
2019-03-21T05:53:59.095Z,10.13
2019-03-21T05:56:27.777Z,10.07
2019-03-21T05:58:56.565Z,10.01
2019-03-21T06:01:25.353Z,10.02
2019-03-21T06:03:54.447Z,9.97
2019-03-21T06:06:58.264Z,10.01
2019-03-21T06:09:26.922Z,10.07
2019-03-21T06:11:58.804Z,10.10
2019-03-21T06:14:28.509Z,10.06
2019-03-21T06:16:57.097Z,10.18
2019-03-21T06:19:34.895Z,10.13
2019-03-21T06:22:09.625Z,10.13
2019-03-21T06:24:59.710Z,10.14
2019-03-21T06:27:28.399Z,10.06
2019-03-21T06:29:57.081Z,10.16
2019-03-21T06:32:27.302Z,10.16
2019-03-21T06:34:57.114Z,10.37
2019-03-21T06:37:28.665Z,10.32
2019-03-21T06:39:56.637Z,10.38
2019-03-21T06:42:25.428Z,10.31
2019-03-21T06:44:54.106Z,10.31
2019-03-21T06:47:22.882Z,10.31
2019-03-21T06:49:51.486Z,10.40
2019-03-21T06:52:20.478Z,10.32
2019-03-21T06:54:49.140Z,10.34
2019-03-21T06:57:17.851Z,10.42
2019-03-21T06:59:46.534Z,10.31
2019-03-21T07:02:15.221Z,10.37
2019-03-21T07:04:43.803Z,10.36
2019-03-21T07:07:12.599Z,10.38
2019-03-21T07:09:41.280Z,10.42
2019-03-21T07:12:10.064Z,10.45
2019-03-21T07:14:38.646Z,10.54
2019-03-21T07:17:07.331Z,10.55
2019-03-21T07:19:36.018Z,10.47
2019-03-21T07:22:04.791Z,10.50
2019-03-21T07:24:33.596Z,10.47
2019-03-21T07:27:02.286Z,10.44
2019-03-21T07:29:31.072Z,10.55
2019-03-21T07:31:59.754Z,10.53
2019-03-21T07:34:28.442Z,10.53
2019-03-21T07:36:57.237Z,10.61
2019-03-21T07:39:28.584Z,10.58
2019-03-21T07:41:56.316Z,10.58
2019-03-21T07:44:26.973Z,10.60
2019-03-21T07:46:55.699Z,10.62
2019-03-21T07:49:24.345Z,10.70
2019-03-21T07:51:57.104Z,10.67
2019-03-21T07:54:25.707Z,10.73
2019-03-21T07:56:54.497Z,10.77
2019-03-21T07:59:23.234Z,10.63
2019-03-21T08:01:51.970Z,10.76
2019-03-21T08:04:20.655Z,10.75
2019-03-21T08:06:49.361Z,10.97
2019-03-21T08:09:18.436Z,10.63
2019-03-21T08:11:47.229Z,10.78
2019-03-21T08:14:15.918Z,10.76
2019-03-21T08:16:44.749Z,10.77
2019-03-21T08:19:13.490Z,10.82
2019-03-21T08:21:42.071Z,10.67
2019-03-21T08:24:10.858Z,10.76
2019-03-21T08:26:39.440Z,10.75
2019-03-21T08:29:08.228Z,10.67
2019-03-21T08:31:36.890Z,10.91
2019-03-21T08:34:05.808Z,10.95
2019-03-21T08:36:34.492Z,10.80
2019-03-21T08:39:04.820Z,10.89
2019-03-21T08:41:33.398Z,10.89
2019-03-21T08:44:02.084Z,10.92
2019-03-21T08:46:30.769Z,10.98
2019-03-21T08:48:59.558Z,11.04
2019-03-21T08:51:28.346Z,11.08
2019-03-21T08:53:57.133Z,11.10
2019-03-21T08:56:25.808Z,11.11
2019-03-21T08:58:54.507Z,11.17
2019-03-21T09:01:23.090Z,11.22
2019-03-21T09:03:51.878Z,11.19
2019-03-21T09:06:20.460Z,11.27
2019-03-21T09:08:49.251Z,11.28
2019-03-21T09:11:17.848Z,11.28
2019-03-21T09:13:46.620Z,11.22
2019-03-21T09:16:15.208Z,11.26
2019-03-21T09:18:43.991Z,11.27
2019-03-21T09:21:19.635Z,11.35
2019-03-21T09:23:42.900Z,11.40
2019-03-21T09:26:14.391Z,11.47
2019-03-21T09:28:43.343Z,11.46
2019-03-21T09:31:11.972Z,11.33
2019-03-21T09:33:40.818Z,11.54
2019-03-21T09:36:09.400Z,11.60
2019-03-21T09:38:38.187Z,11.58
2019-03-21T09:41:06.873Z,11.57
2019-03-21T09:43:35.665Z,11.50
2019-03-21T09:46:04.449Z,11.49
2019-03-21T09:48:33.237Z,11.50
2019-03-21T09:51:01.822Z,11.58
2019-03-21T09:53:30.502Z,11.57
2019-03-21T09:56:01.173Z,11.64
2019-03-21T09:58:29.723Z,11.78
2019-03-21T10:00:58.391Z,11.78
2019-03-21T10:03:27.108Z,11.85
2019-03-21T10:05:55.781Z,11.76
2019-03-21T10:08:24.465Z,11.82
2019-03-21T10:10:53.022Z,11.58
2019-03-21T10:13:21.737Z,11.63
2019-03-21T10:15:50.419Z,11.68
2019-03-21T10:18:19.121Z,11.83
2019-03-21T10:20:47.748Z,11.82
2019-03-21T10:23:16.476Z,11.71
2019-03-21T10:25:45.061Z,11.81
2019-03-21T10:28:13.847Z,11.82
2019-03-21T10:30:43.146Z,11.90
2019-03-21T10:33:13.265Z,11.95
2019-03-21T10:35:42.260Z,12.13
2019-03-21T10:38:11.278Z,11.94
2019-03-21T10:40:40.142Z,12.04
2019-03-21T10:43:10.500Z,12.01
2019-03-21T10:45:39.680Z,12.10
2019-03-21T10:48:08.454Z,12.13
2019-03-21T10:50:41.689Z,12.28
2019-03-21T10:53:11.578Z,12.21
2019-03-21T10:55:40.654Z,12.20
2019-03-21T10:58:09.672Z,12.22
2019-03-21T11:00:38.542Z,12.21
2019-03-21T11:03:07.533Z,12.25
2019-03-21T11:05:36.267Z,12.22
2019-03-21T11:08:05.006Z,12.02
2019-03-21T11:10:33.590Z,12.33
2019-03-21T11:13:02.375Z,12.43
2019-03-21T11:15:31.061Z,12.25
2019-03-21T11:17:59.752Z,12.21
2019-03-21T11:20:30.270Z,12.20
2019-03-21T11:22:59.268Z,12.27
2019-03-21T11:25:28.057Z,12.22
2019-03-21T11:27:56.813Z,12.39
2019-03-21T11:30:33.585Z,12.24
2019-03-21T11:33:03.033Z,12.28
2019-03-21T11:35:35.905Z,12.17
2019-03-21T11:38:05.640Z,11.96
2019-03-21T11:40:34.315Z,12.22
2019-03-21T11:43:04.231Z,12.12
2019-03-21T11:45:34.964Z,12.30
2019-03-21T11:48:05.490Z,12.17
2019-03-21T11:50:34.646Z,12.37
2019-03-21T11:53:03.575Z,12.30
2019-03-21T11:55:37.267Z,12.30
2019-03-21T11:58:10.506Z,12.44
2019-03-21T12:00:44.056Z,12.09
2019-03-21T12:03:12.031Z,12.42
2019-03-21T12:05:40.730Z,12.41
2019-03-21T12:08:09.321Z,12.40
2019-03-21T12:10:37.993Z,12.30
2019-03-21T12:13:06.670Z,12.45
2019-03-21T12:15:35.364Z,12.59
2019-03-21T12:18:04.256Z,12.52
2019-03-21T12:20:33.523Z,12.33
2019-03-21T12:23:02.242Z,12.28
2019-03-21T12:25:31.249Z,12.26
2019-03-21T12:28:01.465Z,12.46
2019-03-21T12:30:35.869Z,12.38
2019-03-21T12:33:04.927Z,12.20
2019-03-21T12:35:33.651Z,12.20
2019-03-21T12:38:03.053Z,12.21
2019-03-21T12:40:34.212Z,12.27
2019-03-21T12:43:05.590Z,12.33
2019-03-21T12:45:35.888Z,12.59
2019-03-21T12:48:05.008Z,12.42
2019-03-21T12:50:33.754Z,12.45
2019-03-21T12:53:02.557Z,12.42
2019-03-21T12:55:31.452Z,12.49
2019-03-21T12:58:03.026Z,12.66
2019-03-21T13:00:39.143Z,12.44
2019-03-21T13:03:08.359Z,12.51
2019-03-21T13:05:40.631Z,12.53
2019-03-21T13:08:09.604Z,12.63
2019-03-21T13:10:38.496Z,12.79
2019-03-21T13:13:07.700Z,12.65
2019-03-21T13:15:37.000Z,12.78
2019-03-21T13:18:06.404Z,13.07
2019-03-21T13:20:34.993Z,13.20
2019-03-21T13:23:04.202Z,12.82
2019-03-21T13:25:33.452Z,12.77
2019-03-21T13:28:02.677Z,12.91
2019-03-21T13:30:31.362Z,12.86
2019-03-21T13:33:00.151Z,12.89
2019-03-21T13:35:32.865Z,12.90
2019-03-21T13:37:59.364Z,12.93
2019-03-21T13:40:28.082Z,13.03
2019-03-21T13:42:56.735Z,12.97
2019-03-21T13:45:25.422Z,12.99
2019-03-21T13:47:54.169Z,12.98
2019-03-21T13:50:22.749Z,13.07
2019-03-21T13:52:51.377Z,13.22
2019-03-21T13:55:20.163Z,13.03
2019-03-21T13:57:48.849Z,12.76
2019-03-21T14:00:19.662Z,13.07
2019-03-21T14:02:48.328Z,13.05
2019-03-21T14:05:17.089Z,13.08
2019-03-21T14:07:45.946Z,13.03
2019-03-21T14:10:14.734Z,13.01
2019-03-21T14:12:43.523Z,12.80
2019-03-21T14:15:14.973Z,12.94
2019-03-21T14:17:43.965Z,12.81
2019-03-21T14:20:14.393Z,12.64
2019-03-21T14:22:43.080Z,12.74
2019-03-21T14:25:11.867Z,12.90
2019-03-21T14:27:40.556Z,12.65
2019-03-21T14:30:17.049Z,13.05
2019-03-21T14:32:46.118Z,13.10
2019-03-21T14:35:20.658Z,12.97
2019-03-21T14:37:49.427Z,12.97
2019-03-21T14:40:18.318Z,12.80
2019-03-21T14:42:47.224Z,13.03
2019-03-21T14:45:16.890Z,12.93
2019-03-21T14:47:45.805Z,13.01
2019-03-21T14:50:16.500Z,12.92
2019-03-21T14:52:45.228Z,12.98
2019-03-21T14:55:15.552Z,13.20
2019-03-21T14:57:44.346Z,13.13
2019-03-21T15:00:19.858Z,13.38
2019-03-21T15:02:48.467Z,13.32
2019-03-21T15:05:17.214Z,13.11
2019-03-21T15:07:46.046Z,13.38
2019-03-21T15:10:18.534Z,13.20
2019-03-21T15:12:47.207Z,13.45
2019-03-21T15:15:16.510Z,13.58
2019-03-21T15:17:45.248Z,13.66
2019-03-21T15:20:17.617Z,13.74
2019-03-21T15:22:46.389Z,13.91
2019-03-21T15:25:15.037Z,14.19
2019-03-21T15:27:43.724Z,14.11
2019-03-21T15:30:18.339Z,14.02
2019-03-21T15:32:47.085Z,13.97
2019-03-21T15:35:17.430Z,13.75
2019-03-21T15:37:46.246Z,13.58
2019-03-21T15:40:16.075Z,13.58
2019-03-21T15:42:44.850Z,13.70
2019-03-21T15:45:22.617Z,13.55
2019-03-21T15:47:47.860Z,13.56
2019-03-21T15:50:28.314Z,13.53
2019-03-21T15:52:57.614Z,13.42
2019-03-21T15:55:26.302Z,13.68
2019-03-21T15:57:54.963Z,13.34
2019-03-21T16:00:40.362Z,13.36
2019-03-21T16:03:13.145Z,13.25
2019-03-21T16:05:42.511Z,13.27
2019-03-21T16:08:11.334Z,13.11
2019-03-21T16:10:42.706Z,13.02
2019-03-21T16:13:19.512Z,12.91
2019-03-21T16:15:48.761Z,12.85
2019-03-21T16:18:17.647Z,12.84
2019-03-21T16:20:46.331Z,12.80
2019-03-21T16:23:15.018Z,12.81
2019-03-21T16:25:43.912Z,12.70
2019-03-21T16:28:12.632Z,12.64
2019-03-21T16:30:41.485Z,12.52
2019-03-21T16:33:11.830Z,12.47
2019-03-21T16:35:44.243Z,12.36
2019-03-21T16:38:17.226Z,12.20
2019-03-21T16:40:46.060Z,12.36
2019-03-21T16:43:14.744Z,12.35
2019-03-21T16:45:44.640Z,12.25
2019-03-21T16:48:13.346Z,12.17
2019-03-21T16:50:42.039Z,12.05
2019-03-21T16:53:10.715Z,11.93
2019-03-21T16:55:39.401Z,11.86
2019-03-21T16:58:08.189Z,11.83
2019-03-21T17:00:36.774Z,11.73
2019-03-21T17:03:05.562Z,11.68
2019-03-21T17:05:34.248Z,11.55
2019-03-21T17:08:11.099Z,11.54
2019-03-21T17:10:33.359Z,11.35
2019-03-21T17:13:04.753Z,11.25
2019-03-21T17:15:32.473Z,11.10
2019-03-21T17:18:01.180Z,11.08
2019-03-21T17:20:29.983Z,10.96
2019-03-21T17:22:58.617Z,10.89
2019-03-21T17:25:27.418Z,10.77
2019-03-21T17:27:56.106Z,10.68
2019-03-21T17:30:24.893Z,10.50
2019-03-21T17:32:53.580Z,10.40
2019-03-21T17:35:22.264Z,10.26
2019-03-21T17:37:51.052Z,10.05
2019-03-21T17:40:19.655Z,9.99
2019-03-21T17:42:48.219Z,9.86
2019-03-21T17:45:18.138Z,9.81
2019-03-21T17:47:46.716Z,9.82
2019-03-21T17:50:17.345Z,9.84
2019-03-21T17:52:46.175Z,9.74
2019-03-21T17:55:15.025Z,9.75
2019-03-21T17:57:43.758Z,9.70
2019-03-21T18:00:22.320Z,9.60
2019-03-21T18:02:51.151Z,9.39
2019-03-21T18:05:19.913Z,9.30
2019-03-21T18:07:49.750Z,9.05
2019-03-21T18:10:34.747Z,9.15
2019-03-21T18:13:04.510Z,9.01
2019-03-21T18:15:33.338Z,8.88
2019-03-21T18:18:02.616Z,8.85
2019-03-21T18:20:31.890Z,8.84
2019-03-21T18:23:00.674Z,8.77
2019-03-21T18:25:29.361Z,8.56
2019-03-21T18:27:58.147Z,8.61
2019-03-21T18:30:26.731Z,8.62
2019-03-21T18:32:55.522Z,8.47
2019-03-21T18:35:24.204Z,8.61
2019-03-21T18:37:53.196Z,8.48
2019-03-21T18:40:21.780Z,8.34
2019-03-21T18:42:50.575Z,8.24
2019-03-21T18:45:19.358Z,8.37
2019-03-21T18:47:48.135Z,8.23
2019-03-21T18:50:17.247Z,8.09
2019-03-21T18:52:46.131Z,8.07
2019-03-21T18:55:15.232Z,7.96
2019-03-21T18:57:54.472Z,8.08
2019-03-21T19:00:23.979Z,8.17
2019-03-21T19:02:53.929Z,7.91
2019-03-21T19:05:22.884Z,7.92
2019-03-21T19:07:51.765Z,8.01
2019-03-21T19:10:20.658Z,7.99
2019-03-21T19:12:49.442Z,7.76
2019-03-21T19:15:18.671Z,7.80
2019-03-21T19:17:51.832Z,7.62
2019-03-21T19:20:39.041Z,7.56
2019-03-21T19:23:13.781Z,7.59
2019-03-21T19:25:42.359Z,7.50
2019-03-21T19:28:11.152Z,7.40
2019-03-21T19:30:43.840Z,7.40
2019-03-21T19:33:12.520Z,7.52
2019-03-21T19:35:46.823Z,7.58
2019-03-21T19:38:15.223Z,7.52
2019-03-21T19:40:44.004Z,7.34
2019-03-21T19:43:13.218Z,7.38
2019-03-21T19:45:42.398Z,7.20
2019-03-21T19:48:11.307Z,7.09
2019-03-21T19:50:41.215Z,7.13
2019-03-21T19:53:09.993Z,7.03
2019-03-21T19:55:39.103Z,7.07
2019-03-21T19:58:07.979Z,7.01
2019-03-21T20:00:36.871Z,6.83
2019-03-21T20:03:05.756Z,6.87
2019-03-21T20:05:34.759Z,6.90
2019-03-21T20:08:05.283Z,6.78
2019-03-21T20:10:34.068Z,6.84
2019-03-21T20:13:02.751Z,6.62
2019-03-21T20:15:31.541Z,6.65
2019-03-21T20:18:00.227Z,6.63
2019-03-21T20:20:31.021Z,6.62
2019-03-21T20:22:59.546Z,6.61
2019-03-21T20:25:28.331Z,6.56
2019-03-21T20:27:57.126Z,6.68
2019-03-21T20:30:25.907Z,6.28
2019-03-21T20:32:54.591Z,6.40
2019-03-21T20:35:23.279Z,6.39
2019-03-21T20:37:51.967Z,6.38
2019-03-21T20:40:20.958Z,6.62
2019-03-21T20:42:49.644Z,6.60
2019-03-21T20:45:23.823Z,6.69
2019-03-21T20:47:52.443Z,6.57
2019-03-21T20:50:21.232Z,6.32
2019-03-21T20:52:49.916Z,6.18
2019-03-21T20:55:18.600Z,6.28
2019-03-21T20:57:47.390Z,6.25
2019-03-21T21:00:19.048Z,6.11
2019-03-21T21:02:50.783Z,6.17
2019-03-21T21:05:19.598Z,6.12
2019-03-21T21:07:48.378Z,6.10
2019-03-21T21:10:17.173Z,5.97
2019-03-21T21:12:45.852Z,5.98
2019-03-21T21:15:17.200Z,5.88
2019-03-21T21:17:45.997Z,6.20
2019-03-21T21:20:18.364Z,6.22
2019-03-21T21:22:47.170Z,5.98
2019-03-21T21:25:16.350Z,5.86
2019-03-21T21:27:49.854Z,5.80
2019-03-21T21:30:18.646Z,5.83
2019-03-21T21:32:47.322Z,5.82
2019-03-21T21:35:16.011Z,5.53
2019-03-21T21:37:45.420Z,5.73
2019-03-21T21:40:15.845Z,5.78
2019-03-21T21:42:44.624Z,5.78
2019-03-21T21:45:15.971Z,5.72
2019-03-21T21:47:45.171Z,5.66
2019-03-21T21:50:15.391Z,5.66
2019-03-21T21:52:44.148Z,5.92
2019-03-21T21:55:13.192Z,6.01
2019-03-21T21:57:42.063Z,6.10
2019-03-21T22:00:14.780Z,6.13
2019-03-21T22:02:46.908Z,5.96
2019-03-21T22:05:15.902Z,5.59
2019-03-21T22:07:44.699Z,5.51
2019-03-21T22:10:13.794Z,5.48
2019-03-21T22:12:42.586Z,5.49
2019-03-21T22:15:13.565Z,5.44
2019-03-21T22:17:43.133Z,5.39
2019-03-21T22:20:13.514Z,5.50
2019-03-21T22:22:42.627Z,5.50
2019-03-21T22:25:11.853Z,5.33
2019-03-21T22:27:40.633Z,5.35
2019-03-21T22:30:14.708Z,5.39
2019-03-21T22:32:43.432Z,5.31
2019-03-21T22:35:12.423Z,5.22
2019-03-21T22:37:41.111Z,5.24
2019-03-21T22:40:12.258Z,5.33
2019-03-21T22:42:41.042Z,5.13
2019-03-21T22:45:14.712Z,5.33
2019-03-21T22:47:43.327Z,5.36
2019-03-21T22:50:16.345Z,5.30
2019-03-21T22:52:46.024Z,5.15
2019-03-21T22:55:14.821Z,5.00
2019-03-21T22:57:43.703Z,4.98
2019-03-21T23:00:18.019Z,4.94
2019-03-21T23:02:46.816Z,5.00
2019-03-21T23:05:15.904Z,5.04
2019-03-21T23:07:44.693Z,5.01
2019-03-21T23:10:13.901Z,4.99
2019-03-21T23:12:42.997Z,4.94
2019-03-21T23:15:13.004Z,4.86
2019-03-21T23:17:41.791Z,4.94
2019-03-21T23:20:12.697Z,4.83
2019-03-21T23:22:41.420Z,5.06
2019-03-21T23:25:11.534Z,5.03
2019-03-21T23:27:40.324Z,5.00
2019-03-21T23:30:16.790Z,5.00
2019-03-21T23:32:45.597Z,4.73
2019-03-21T23:35:15.194Z,4.69
2019-03-21T23:37:43.975Z,4.64
2019-03-21T23:40:14.400Z,4.61
2019-03-21T23:42:43.200Z,4.53
2019-03-21T23:45:13.413Z,4.53
2019-03-21T23:47:42.208Z,4.57
2019-03-21T23:50:12.410Z,4.56
2019-03-21T23:52:41.208Z,4.48
2019-03-21T23:55:10.611Z,4.60
2019-03-21T23:57:39.402Z,4.46
